M I D A S
Marine Information and Data Acquisition System
Tripno 863 of the Zeeleeuw from 2005-03-15 07:17:54 to 2005-03-15 12:53:38
Back to CruiseResearch ActivitiesStationsMapUnderway DataData graphs

EquipmentUnitsComment
TimeDGPSUTC
LatitudeDGPSDM.mWGS84
LongitudeDGPSDM.mWGS84
TemperatureSBE03/SBE38deg celciusITS90
ConductivitySBE21S/mITS90
SalinitySBE21 Practical Salinity Units
ChlorophylAChelsea fluorimeterg/lCalibrated in Aceton
Missing or incorrect values are displayed as -999
Sea surface data collected by the RV Zeeleeuw from 2005-03-15 07:14:11 to 2005-03-15 13:03:22
Time Latitude Longitude Temperature Conductivity Salinity ChlorophylA
2005-03-15 07:15:16 51°13.619 2°56.027 13.4858 3.803343 26.2712 -0.848668
2005-03-15 07:16:16 51°13.653 2°55.917 13.5439 3.803133 26.272126 -0.781249
2005-03-15 07:17:16 51°13.673 2°55.811 13.5785 3.802816 26.270549 -0.814958
2005-03-15 07:18:16 51°13.686 2°55.791 13.7823 3.802606 26.271898 -0.848668
2005-03-15 07:19:16 51°13.752 2°55.74 -999 3.66972 25.249581 0.364871
2005-03-15 07:20:16 51°13.862 2°55.61 -999 2.442337 24.316102 3.499845
2005-03-15 07:21:16 51°14.012 2°55.498 -999 2.444447 24.939778 3.466136
2005-03-15 07:22:16 51°14.167 2°55.379 -999 2.537196 26.099513 4.005486
2005-03-15 07:23:16 51°14.302 2°55.186 -999 2.5169 25.949336 3.23017
2005-03-15 07:24:16 51°14.437 2°54.951 -999 2.566646 26.554393 3.331298
2005-03-15 07:25:16 51°14.614 2°54.754 -999 2.628073 27.3395 3.263879
2005-03-15 07:26:16 51°14.819 2°54.759 -999 2.711916 28.344007 2.926785
2005-03-15 07:27:16 51°14.925 2°54.839 -999 2.745374 28.80459 2.825657
2005-03-15 07:28:16 51°14.987 2°54.874 -999 2.744743 28.830833 2.758238
2005-03-15 07:29:15 51°15.033 2°54.882 -999 2.741903 28.814365 2.65711
2005-03-15 07:30:16 51°15.081 2°54.866 -999 2.742008 28.827301 2.522272
2005-03-15 07:31:16 51°15.179 2°54.803 -999 2.750636 28.936614 2.488563
2005-03-15 07:32:15 51°15.36 2°54.698 -999 2.73801 28.796636 2.6234
2005-03-15 07:33:16 51°15.552 2°54.51 -999 2.747479 28.918873 2.724529
2005-03-15 07:34:16 51°15.729 2°54.28 -999 2.75758 29.034404 2.690819
2005-03-15 07:35:16 51°15.91 2°54.045 -999 2.772101 29.236966 2.353725
2005-03-15 07:36:16 51°16.095 2°53.827 -999 2.763578 29.145095 2.185178
2005-03-15 07:37:15 51°16.284 2°53.624 -999 2.751373 28.997056 2.421144
2005-03-15 07:38:16 51°16.479 2°53.423 -999 2.760421 29.09894 2.65711
2005-03-15 07:39:16 51°16.671 2°53.218 -999 2.765472 29.1782 2.421144
2005-03-15 07:40:16 51°16.862 2°53.018 -999 2.770628 29.236537 2.320016
2005-03-15 07:41:16 51°17.049 2°52.82 -999 2.781887 29.368244 2.117759
2005-03-15 07:42:16 51°17.244 2°52.622 -999 2.784833 29.416112 1.949212
2005-03-15 07:43:15 51°17.439 2°52.43 -999 2.79746 29.565524 1.848084
2005-03-15 07:44:16 51°17.651 2°52.268 -999 2.815664 29.76144 2.050341
2005-03-15 07:45:16 51°17.867 2°52.164 -999 2.812612 29.713769 2.185178
2005-03-15 07:46:16 51°18.091 2°52.129 -999 2.786516 29.409304 2.151469
2005-03-15 07:47:15 51°18.306 2°52.22 -999 2.80472 29.625112 2.353725
2005-03-15 07:48:16 51°18.498 2°52.408 -999 2.803457 29.602367 2.353725
2005-03-15 07:49:16 51°18.684 2°52.608 -999 2.805246 29.628821 2.387435
2005-03-15 07:50:16 51°18.853 2°52.84 -999 2.800827 29.585425 2.252597
2005-03-15 07:51:16 51°19.018 2°53.073 -999 2.802616 29.614301 2.353725
2005-03-15 07:52:16 51°19.182 2°53.302 -999 2.799249 29.575093 2.320016
2005-03-15 07:53:16 51°19.348 2°53.528 -999 2.793777 29.508987 2.421144
2005-03-15 07:54:16 51°19.514 2°53.753 -999 2.787042 29.424219 2.555982
2005-03-15 07:55:16 51°19.676 2°53.985 -999 2.784833 29.39532 2.488563
2005-03-15 07:56:16 51°19.84 2°54.218 -999 2.780729 29.325279 2.522272
2005-03-15 07:57:16 51°20.001 2°54.448 -999 2.775047 29.256888 2.353725
2005-03-15 07:58:16 51°20.165 2°54.682 -999 2.775468 29.264161 2.421144
2005-03-15 07:59:16 51°20.326 2°54.912 -999 2.776309 29.265989 2.353725
2005-03-15 08:00:16 51°20.49 2°55.148 -999 2.777256 29.276192 2.320016
2005-03-15 08:01:16 51°20.656 2°55.381 -999 2.776204 29.263973 2.252597
2005-03-15 08:02:16 51°20.819 2°55.617 -999 2.776836 29.275279 2.185178
2005-03-15 08:03:16 51°20.985 2°55.857 -999 2.776625 29.27363 2.218888
2005-03-15 08:04:16 51°21.147 2°56.09 -999 2.776099 29.254807 2.286306
2005-03-15 08:05:16 51°21.309 2°56.329 -999 2.770627 29.174666 2.320016
2005-03-15 08:06:16 51°21.468 2°56.571 -999 2.768944 29.15593 2.286306
2005-03-15 08:07:16 51°21.629 2°56.809 -999 2.764735 29.082661 2.454853
2005-03-15 08:08:16 51°21.79 2°57.05 -999 2.762946 29.045404 2.421144
2005-03-15 08:09:16 51°21.953 2°57.293 -999 2.76242 29.02909 2.320016
2005-03-15 08:10:16 51°22.115 2°57.537 -999 2.76242 29.023589 2.252597
2005-03-15 08:11:16 51°22.277 2°57.781 -999 2.762104 29.019936 2.218888
2005-03-15 08:12:16 51°22.439 2°58.024 -999 2.763261 29.026258 2.185178
2005-03-15 08:13:16 51°22.6 2°58.273 -999 2.764313 29.033717 2.08405
2005-03-15 08:14:15 51°22.759 2°58.516 -999 2.764524 29.038509 2.08405
2005-03-15 08:15:16 51°22.926 2°58.763 -999 2.764103 29.030497 1.915503
2005-03-15 08:16:16 51°23.091 2°59.011 -999 2.765155 29.042669 1.881794
2005-03-15 08:17:16 51°23.25 2°59.258 -999 2.765471 29.045535 1.814375
2005-03-15 08:18:16 51°23.406 2°59.515 -999 2.766523 29.060067 1.848084
2005-03-15 08:19:16 51°23.565 2°59.773 -999 2.76747 29.076532 1.780665
2005-03-15 08:20:16 51°23.722 3°0.029 -999 2.768943 29.102245 1.814375
2005-03-15 08:21:16 51°23.878 3°0.286 -999 2.771679 29.150495 1.881794
2005-03-15 08:22:16 51°24.032 3°0.543 -999 2.772942 29.163543 1.848084
2005-03-15 08:23:15 51°24.185 3°0.795 -999 2.77431 29.17623 1.780665
2005-03-15 08:24:16 51°24.334 3°1.056 -999 2.782517 29.277676 1.780665
2005-03-15 08:25:16 51°24.48 3°1.313 -999 2.785147 29.310555 1.915503
2005-03-15 08:26:16 51°24.63 3°1.569 -999 2.78641 29.323607 1.982922
2005-03-15 08:27:16 51°24.782 3°1.827 -999 2.783569 29.287494 2.050341
2005-03-15 08:28:17 51°24.937 3°2.085 -999 2.785463 29.308656 2.050341
2005-03-15 08:29:16 51°25.085 3°2.334 -999 2.788094 29.358244 1.982922
2005-03-15 08:30:16 51°25.231 3°2.592 -999 2.790093 29.378254 1.881794
2005-03-15 08:31:16 51°25.373 3°2.856 -999 2.791566 29.393752 1.814375
2005-03-15 08:32:16 51°25.503 3°3.137 -999 2.792303 29.375226 1.713247
2005-03-15 08:33:16 51°25.631 3°3.414 -999 2.792618 29.361394 1.679537
2005-03-15 08:34:16 51°25.759 3°3.693 -999 2.793355 29.377082 1.814375
2005-03-15 08:35:16 51°25.891 3°3.971 -999 2.793881 29.372048 1.848084
2005-03-15 08:36:16 51°26.026 3°4.252 -999 2.794933 29.375495 1.814375
2005-03-15 08:37:15 51°26.152 3°4.542 -999 2.796932 29.399445 2.08405
2005-03-15 08:38:16 51°26.278 3°4.841 -999 2.798616 29.418151 2.320016
2005-03-15 08:39:16 51°26.404 3°5.135 -999 2.801246 29.454999 2.589691
2005-03-15 08:40:16 51°26.529 3°5.428 -999 2.801667 29.469445 2.6234
2005-03-15 08:41:16 51°26.656 3°5.717 -999 2.803246 29.490136 2.589691
2005-03-15 08:42:16 51°26.781 3°6.009 -999 2.803877 29.509437 2.555982
2005-03-15 08:43:16 51°26.904 3°6.306 -999 2.803877 29.515032 2.589691
2005-03-15 08:44:16 51°27.033 3°6.599 -999 2.804825 29.530018 2.320016
2005-03-15 08:45:16 51°27.159 3°6.896 -999 2.805877 29.539827 2.050341
2005-03-15 08:46:16 51°27.288 3°7.189 -999 2.807245 29.569316 2.353725
2005-03-15 08:47:15 51°27.417 3°7.479 -999 2.808087 29.57989 2.387435
2005-03-15 08:48:16 51°27.546 3°7.771 -999 2.810612 29.603595 2.353725
2005-03-15 08:49:16 51°27.675 3°8.059 -999 2.812191 29.621116 2.421144
2005-03-15 08:50:16 51°27.805 3°8.357 -999 2.812611 29.622792 2.454853
2005-03-15 08:51:16 51°27.933 3°8.647 -999 2.812927 29.622444 2.387435
2005-03-15 08:52:16 51°28.056 3°8.919 -999 2.814085 29.634274 2.387435
2005-03-15 08:53:16 51°28.131 3°9.015 -999 2.812822 29.619618 2.421144
2005-03-15 08:54:16 51°28.148 3°9.009 -999 2.813769 29.628202 2.252597
2005-03-15 08:55:16 51°28.165 3°9.003 -999 2.812822 29.62042 2.387435
2005-03-15 08:56:16 51°28.181 3°9 -999 2.813138 29.627294 2.454853
2005-03-15 08:57:16 51°28.197 3°8.999 -999 2.813558 29.630575 2.387435
2005-03-15 08:58:16 51°28.213 3°8.999 -999 2.812296 29.610303 2.353725
2005-03-15 08:59:16 51°28.228 3°9.001 -999 2.814084 29.619833 2.286306
2005-03-15 09:00:16 51°28.242 3°9.004 -999 2.815452 29.63089 2.218888
2005-03-15 09:01:16 51°28.256 3°9.008 -999 2.815347 29.627264 2.185178
2005-03-15 09:02:16 51°28.269 3°9.013 -999 2.814505 29.617499 2.117759
2005-03-15 09:03:16 51°28.283 3°9.017 -999 2.815137 29.620814 2.117759
2005-03-15 09:04:16 51°28.295 3°9.021 -999 2.815663 29.626114 2.016631
2005-03-15 09:05:16 51°28.308 3°9.025 -999 2.814505 29.608684 2.016631
2005-03-15 09:06:16 51°28.321 3°9.03 -999 2.815137 29.615204 2.016631
2005-03-15 09:07:16 51°28.334 3°9.034 -999 2.813032 29.585199 2.050341
2005-03-15 09:08:17 51°28.346 3°9.038 -999 2.8144 29.597854 2.08405
2005-03-15 09:09:16 51°28.359 3°9.042 -999 2.814189 29.598617 2.08405
2005-03-15 09:10:16 51°28.371 3°9.048 -999 2.815242 29.610816 2.117759
2005-03-15 09:11:16 51°28.371 3°9.07 -999 2.814821 29.601932 2.050341
2005-03-15 09:12:16 51°28.386 3°9.198 -999 2.815031 29.609978 1.982922
2005-03-15 09:13:16 51°28.502 3°9.228 -999 2.815558 29.620886 1.982922
2005-03-15 09:14:16 51°28.591 3°9.078 -999 2.817662 29.6485 2.151469
2005-03-15 09:15:16 51°28.622 3°8.885 -999 2.81924 29.65798 2.08405
2005-03-15 09:16:16 51°28.675 3°8.773 -999 2.819662 29.67169 1.982922
2005-03-15 09:17:16 51°28.744 3°8.754 -999 2.82124 29.69 2.08405
2005-03-15 09:18:16 51°28.818 3°8.781 -999 2.820293 29.693478 2.218888
2005-03-15 09:19:16 51°28.882 3°8.838 -999 2.822292 29.711856 2.151469
2005-03-15 09:20:16 51°28.941 3°8.912 -999 2.819451 29.676477 2.185178
2005-03-15 09:21:16 51°28.989 3°8.989 -999 2.825449 29.743663 2.252597
2005-03-15 09:22:16 51°29.024 3°9.052 -999 2.829658 29.785259 2.320016
2005-03-15 09:23:16 51°29.051 3°9.11 -999 2.833131 29.819105 2.252597
2005-03-15 09:24:16 51°29.071 3°9.162 -999 2.83734 29.859068 2.218888
2005-03-15 09:25:15 51°29.092 3°9.214 -999 2.838814 29.872124 2.252597
2005-03-15 09:26:15 51°29.113 3°9.265 -999 2.843654 29.916967 2.218888
2005-03-15 09:27:16 51°29.132 3°9.319 -999 2.845969 29.936542 2.218888
2005-03-15 09:28:16 51°29.151 3°9.371 -999 2.844075 29.90326 2.218888
2005-03-15 09:29:15 51°29.172 3°9.423 -999 2.848495 29.946417 2.218888
2005-03-15 09:30:15 51°29.193 3°9.476 -999 2.853862 29.997303 2.185178
2005-03-15 09:31:16 51°29.215 3°9.529 -999 2.85544 30.010741 2.185178
2005-03-15 09:32:16 51°29.237 3°9.579 -999 2.858387 30.0376 2.218888
2005-03-15 09:33:15 51°29.259 3°9.629 -999 2.856914 30.017286 2.252597
2005-03-15 09:34:16 51°29.283 3°9.68 -999 2.858808 30.035995 2.252597
2005-03-15 09:35:16 51°29.306 3°9.731 -999 2.860913 30.055519 2.252597
2005-03-15 09:36:16 51°29.328 3°9.782 -999 2.860702 30.053891 2.320016
2005-03-15 09:37:16 51°29.35 3°9.833 -999 2.861018 30.057549 2.185178
2005-03-15 09:38:16 51°29.372 3°9.881 -999 2.861965 30.064469 2.151469
2005-03-15 09:39:16 51°29.397 3°9.929 -999 2.863333 30.076264 2.218888
2005-03-15 09:40:16 51°29.423 3°9.974 -999 2.864491 30.089676 2.353725
2005-03-15 09:41:16 51°29.453 3°10.014 -999 2.865753 30.096192 2.218888
2005-03-15 09:42:16 51°29.487 3°10.052 -999 2.866069 30.094981 2.151469
2005-03-15 09:43:16 51°29.521 3°10.088 -999 2.869016 30.120181 2.151469
2005-03-15 09:44:17 51°29.554 3°10.127 -999 2.868805 30.109631 2.151469
2005-03-15 09:45:16 51°29.582 3°10.169 -999 2.87312 30.150653 2.185178
2005-03-15 09:46:16 51°29.607 3°10.217 -999 2.874067 30.151062 2.117759
2005-03-15 09:47:15 51°29.625 3°10.265 -999 2.87775 30.184753 2.050341
2005-03-15 09:48:16 51°29.646 3°10.311 -999 2.880592 30.210317 2.08405
2005-03-15 09:49:16 51°29.673 3°10.352 -999 2.882697 30.224099 2.151469
2005-03-15 09:50:16 51°29.7 3°10.394 -999 2.884275 30.235041 2.016631
2005-03-15 09:51:16 51°29.729 3°10.436 -999 2.887011 30.260179 2.117759
2005-03-15 09:52:16 51°29.757 3°10.482 -999 2.889327 30.273935 2.218888
2005-03-15 09:53:16 51°29.782 3°10.53 -999 2.892273 30.298234 2.050341
2005-03-15 09:54:16 51°29.805 3°10.582 -999 2.894904 30.317246 2.151469
2005-03-15 09:55:16 51°29.824 3°10.654 -999 2.897956 30.341112 2.016631
2005-03-15 09:56:16 51°29.838 3°10.739 -999 2.900272 30.35727 1.915503
2005-03-15 09:57:16 51°29.842 3°10.829 -999 2.900482 30.351559 2.08405
2005-03-15 09:58:16 51°29.829 3°10.907 -999 2.900903 30.35642 1.982922
2005-03-15 09:59:16 51°29.811 3°10.951 -999 2.899745 30.341425 1.915503
2005-03-15 10:00:16 51°29.794 3°10.978 -999 2.898483 30.334166 1.915503
2005-03-15 10:01:16 51°29.759 3°11.006 -999 2.897009 30.319592 2.016631
2005-03-15 10:02:16 51°29.698 3°10.983 -999 2.896273 30.317591 2.08405
2005-03-15 10:03:17 51°29.637 3°10.894 -999 2.893536 30.293304 2.016631
2005-03-15 10:04:16 51°29.603 3°10.776 -999 2.8908 30.275513 2.117759
2005-03-15 10:05:16 51°29.577 3°10.669 -999 2.888485 30.252823 2.08405
2005-03-15 10:06:16 51°29.554 3°10.568 -999 2.887537 30.243503 1.713247
2005-03-15 10:07:16 51°29.538 3°10.479 -999 2.887222 30.239042 1.612118
2005-03-15 10:08:16 51°29.525 3°10.403 -999 2.887327 30.238634 1.645828
2005-03-15 10:09:16 51°29.511 3°10.335 -999 2.887537 30.236194 1.814375
2005-03-15 10:10:16 51°29.497 3°10.275 -999 2.887958 30.241057 2.016631
2005-03-15 10:11:16 51°29.481 3°10.215 -999 2.888169 30.238617 2.08405
2005-03-15 10:12:16 51°29.464 3°10.159 -999 2.888379 30.240237 2.050341
2005-03-15 10:13:16 51°29.445 3°10.106 -999 2.888379 30.240237 2.08405
2005-03-15 10:14:16 51°29.426 3°10.052 -999 2.88859 30.239421 2.016631
2005-03-15 10:15:16 51°29.407 3°9.997 -999 2.888064 30.235778 1.881794
2005-03-15 10:16:16 51°29.39 3°9.941 -999 2.887432 30.230108 1.814375
2005-03-15 10:17:16 51°29.372 3°9.885 -999 2.887222 30.224431 1.814375
2005-03-15 10:18:15 51°29.355 3°9.832 -999 2.887327 30.225646 1.949212
2005-03-15 10:19:16 51°29.337 3°9.779 -999 2.88638 30.21633 1.982922
2005-03-15 10:20:16 51°29.318 3°9.728 -999 2.886169 30.213899 1.915503
2005-03-15 10:21:16 51°29.297 3°9.677 -999 2.885327 30.206608 1.982922
2005-03-15 10:22:16 51°29.276 3°9.628 -999 2.884485 30.200938 2.016631
2005-03-15 10:23:16 51°29.253 3°9.581 -999 2.884169 30.189996 1.848084
2005-03-15 10:24:16 51°29.23 3°9.536 -999 2.881117 30.153136 1.814375
2005-03-15 10:25:16 51°29.205 3°9.49 -999 2.882591 30.177438 1.814375
2005-03-15 10:26:17 51°29.18 3°9.444 -999 2.881433 30.169739 1.679537
2005-03-15 10:27:16 51°29.156 3°9.398 -999 2.880381 30.162443 1.612118
2005-03-15 10:28:16 51°29.13 3°9.35 -999 2.879013 30.151498 1.612118
2005-03-15 10:29:16 51°29.106 3°9.303 -999 2.87796 30.141769 1.645828
2005-03-15 10:30:16 51°29.081 3°9.258 -999 2.877118 30.131233 1.612118
2005-03-15 10:31:16 51°29.056 3°9.213 -999 2.875856 30.119881 1.679537
2005-03-15 10:32:16 51°29.032 3°9.168 -999 2.874593 30.110955 1.645828
2005-03-15 10:33:16 51°29.006 3°9.123 -999 2.873961 30.105277 1.645828
2005-03-15 10:34:16 51°28.981 3°9.079 -999 2.872698 30.094729 1.612118
2005-03-15 10:35:17 51°28.956 3°9.033 -999 2.871857 30.086618 1.679537
2005-03-15 10:36:14 51°28.932 3°8.989 -999 2.870804 30.080117 1.612118
2005-03-15 10:37:16 51°28.906 3°8.943 -999 2.870383 30.072018 1.645828
2005-03-15 10:38:16 51°28.877 3°8.892 -999 2.869752 30.066338 1.713247
2005-03-15 10:39:16 51°28.843 3°8.819 -999 2.86891 30.059034 1.612118
2005-03-15 10:40:16 51°28.813 3°8.727 -999 2.867121 30.050479 1.477281
2005-03-15 10:41:15 51°28.796 3°8.625 -999 2.865542 30.035462 1.308734
2005-03-15 10:42:15 51°28.791 3°8.538 -999 2.86449 30.028143 1.275024
2005-03-15 10:43:16 51°28.787 3°8.476 -999 2.864595 30.027744 1.409862
2005-03-15 10:44:16 51°28.784 3°8.43 -999 2.864595 30.027744 1.679537
2005-03-15 10:45:15 51°28.781 3°8.395 -999 2.864806 30.028562 1.746956
2005-03-15 10:46:17 51°28.777 3°8.359 -999 2.865437 30.034246 1.814375
2005-03-15 10:47:16 51°28.762 3°8.261 -999 2.866069 30.041545 1.814375
2005-03-15 10:48:16 51°28.699 3°8.141 -999 2.867752 30.048079 1.814375
2005-03-15 10:49:15 51°28.589 3°7.971 -999 2.866384 30.021775 1.51099
2005-03-15 10:50:16 51°28.433 3°7.767 -999 2.857544 29.949465 1.814375
2005-03-15 10:51:16 51°28.267 3°7.548 -999 2.845442 29.831298 1.746956
2005-03-15 10:52:16 51°28.093 3°7.314 -999 2.836919 29.768052 1.780665
2005-03-15 10:53:16 51°27.91 3°7.069 -999 2.833657 29.751171 1.746956
2005-03-15 10:54:16 51°27.726 3°6.821 -999 2.831762 29.743692 1.780665
2005-03-15 10:55:16 51°27.542 3°6.567 -999 2.830816 29.747984 1.780665
2005-03-15 10:56:16 51°27.373 3°6.299 -999 2.831657 29.752915 1.746956
2005-03-15 10:57:16 51°27.203 3°6.028 -999 2.828816 29.725624 1.746956
2005-03-15 10:58:16 51°27.032 3°5.755 -999 2.825975 29.696724 1.713247
2005-03-15 10:59:15 51°26.859 3°5.483 -999 2.823239 29.668238 1.746956
2005-03-15 11:00:16 51°26.681 3°5.205 -999 2.821134 29.647865 1.814375
2005-03-15 11:01:16 51°26.505 3°4.932 -999 2.819661 29.634002 1.848084
2005-03-15 11:02:15 51°26.33 3°4.665 -999 2.820187 29.644103 1.982922
2005-03-15 11:03:17 51°26.13 3°4.437 -999 2.820608 29.644974 2.016631
2005-03-15 11:04:16 51°25.892 3°4.439 -999 2.820924 29.635817 1.780665
2005-03-15 11:05:16 51°25.644 3°4.455 -999 2.818083 29.628528 2.320016
2005-03-15 11:06:17 51°25.408 3°4.532 -999 2.813137 29.586419 2.724529
2005-03-15 11:07:17 51°25.186 3°4.669 -999 2.812611 29.557134 3.129042
2005-03-15 11:08:16 51°24.966 3°4.795 -999 2.810506 29.516804 3.19646
2005-03-15 11:09:17 51°24.728 3°4.827 -999 2.80798 29.466084 3.095332
2005-03-15 11:10:16 51°24.497 3°4.773 -999 2.806086 29.421151 2.994204
2005-03-15 11:11:16 51°24.271 3°4.645 -999 2.806928 29.417392 2.589691
2005-03-15 11:12:17 51°24.053 3°4.482 -999 2.808927 29.398488 2.218888
2005-03-15 11:13:16 51°23.849 3°4.315 -999 2.80135 29.310326 2.151469
2005-03-15 11:14:16 51°23.641 3°4.128 -999 2.796931 29.281441 2.353725
2005-03-15 11:15:16 51°23.437 3°3.92 -999 2.798299 29.294066 2.218888
2005-03-15 11:16:16 51°23.233 3°3.71 -999 2.801561 29.351461 3.668392
2005-03-15 11:17:16 51°23.028 3°3.503 -999 2.799667 29.350953 5.050477
2005-03-15 11:18:16 51°22.824 3°3.298 -999 2.798615 29.342754 5.151606
2005-03-15 11:19:16 51°22.62 3°3.097 -999 2.798194 29.324444 5.387571
2005-03-15 11:20:16 51°22.427 3°2.862 -999 2.794932 29.274149 5.522409
2005-03-15 11:21:16 51°22.238 3°2.618 -999 2.791038 29.208754 5.219024
2005-03-15 11:22:17 51°22.078 3°2.315 -999 2.786408 29.137328 4.949349
2005-03-15 11:23:16 51°21.939 3°1.998 -999 2.782515 29.086999 4.106614
2005-03-15 11:24:16 51°21.8 3°1.682 -999 2.782094 29.064948 3.668392
2005-03-15 11:25:17 51°21.658 3°1.361 -999 2.780305 29.047486 3.836939
2005-03-15 11:26:16 51°21.528 3°1.04 -999 2.777043 29.022433 3.567264
2005-03-15 11:27:16 51°21.401 3°0.719 -999 2.776096 29.007629 3.23017
2005-03-15 11:28:16 51°21.27 3°0.391 -999 2.777359 28.996424 2.960494
2005-03-15 11:29:16 51°21.139 3°0.057 -999 2.778832 28.993109 2.994204
2005-03-15 11:30:17 51°21.009 2°59.725 -999 2.779147 28.996737 2.724529
2005-03-15 11:31:16 51°20.881 2°59.398 -999 2.778726 28.990343 2.65711
2005-03-15 11:32:16 51°20.753 2°59.07 -999 2.77799 28.991219 2.6234
2005-03-15 11:33:15 51°20.623 2°58.741 -999 2.778411 28.986715 2.589691
2005-03-15 11:34:16 51°20.49 2°58.402 -999 2.778832 29.000118 2.555982
2005-03-15 11:35:16 51°20.361 2°58.071 -999 2.778727 29.005921 2.488563
2005-03-15 11:36:15 51°20.232 2°57.737 -999 2.77799 28.995893 2.555982
2005-03-15 11:37:16 51°20.098 2°57.394 -999 2.777674 28.989148 2.522272
2005-03-15 11:38:16 51°19.966 2°57.056 -999 2.776833 28.977913 2.522272
2005-03-15 11:39:16 51°19.835 2°56.719 -999 2.775675 28.968499 2.589691
2005-03-15 11:40:16 51°19.703 2°56.376 -999 2.774623 28.96574 2.589691
2005-03-15 11:41:16 51°19.571 2°56.028 -999 2.773781 28.959174 2.6234
2005-03-15 11:42:16 51°19.439 2°55.684 -999 2.77315 28.941801 2.589691
2005-03-15 11:43:16 51°19.317 2°55.335 -999 2.771572 28.933763 2.488563
2005-03-15 11:44:17 51°19.189 2°54.975 -999 2.771572 28.925988 2.454853
2005-03-15 11:45:16 51°19.067 2°54.63 -999 2.769783 28.917081 2.421144
2005-03-15 11:46:16 51°18.945 2°54.282 -999 2.76852 28.904892 2.454853
2005-03-15 11:47:16 51°18.817 2°53.93 -999 2.770204 28.935144 3.027913
2005-03-15 11:48:15 51°18.694 2°53.588 -999 2.776412 28.983196 2.555982
2005-03-15 11:49:17 51°18.556 2°53.243 -999 2.778411 29.061639 4.072905
2005-03-15 11:50:16 51°18.404 2°52.934 -999 2.777044 29.070927 4.376289
2005-03-15 11:51:16 51°18.227 2°52.66 -999 2.777675 29.093107 3.971777
2005-03-15 11:52:17 51°18.005 2°52.481 -999 2.77978 29.135461 4.005486
2005-03-15 11:53:16 51°17.781 2°52.34 -999 2.782305 29.181159 4.039195
2005-03-15 11:54:15 51°17.555 2°52.206 -999 2.784831 29.241926 4.409999
2005-03-15 11:55:16 51°17.314 2°52.144 -999 2.788724 29.292514 4.713383
2005-03-15 11:56:16 51°17.073 2°52.131 -999 2.794722 29.365908 4.91564
2005-03-15 11:57:16 51°16.839 2°52.156 -999 2.804614 29.500406 4.612255
2005-03-15 11:58:16 51°16.652 2°52.359 -999 2.808297 29.5519 4.477418
2005-03-15 11:59:16 51°16.478 2°52.602 -999 2.80998 29.563423 4.477418
2005-03-15 12:00:16 51°16.303 2°52.844 -999 2.810296 29.558284 4.072905
2005-03-15 12:01:16 51°16.133 2°53.08 -999 2.807665 29.515015 3.499845
2005-03-15 12:02:17 51°16.04 2°53.359 -999 2.801457 29.425593 2.994204
2005-03-15 12:03:16 51°15.982 2°53.484 -999 2.793143 29.281125 2.825657
2005-03-15 12:04:16 51°15.948 2°53.506 -999 2.783042 29.146388 2.825657
2005-03-15 12:05:16 51°15.926 2°53.504 -999 2.779148 29.10618 2.859366
2005-03-15 12:06:16 51°15.909 2°53.5 -999 2.778307 29.095684 2.825657
2005-03-15 12:07:16 51°15.895 2°53.494 -999 2.776307 29.078892 2.893076
2005-03-15 12:08:16 51°15.886 2°53.489 -999 2.775887 29.072468 2.960494
2005-03-15 12:09:16 51°15.879 2°53.484 -999 2.77494 29.06703 2.994204
2005-03-15 12:10:16 51°15.875 2°53.48 -999 2.775361 29.07267 2.994204
2005-03-15 12:11:17 51°15.87 2°53.475 -999 2.775887 29.075604 2.926785
2005-03-15 12:12:16 51°15.866 2°53.47 -999 2.775361 29.071102 2.960494
2005-03-15 12:13:17 51°15.86 2°53.466 -999 2.775361 29.069534 2.960494
2005-03-15 12:14:17 51°15.856 2°53.461 -999 2.77515 29.071026 2.960494
2005-03-15 12:15:16 51°15.852 2°53.457 -999 2.77515 29.06397 2.994204
2005-03-15 12:16:16 51°15.847 2°53.454 -999 2.77536 29.061696 2.994204
2005-03-15 12:17:16 51°15.842 2°53.45 -999 2.775571 29.057856 2.960494
2005-03-15 12:18:16 51°15.837 2°53.445 -999 2.77536 29.056212 2.994204
2005-03-15 12:19:16 51°15.831 2°53.44 -999 2.775676 29.05437 2.994204
2005-03-15 12:20:16 51°15.826 2°53.435 -999 2.775781 29.057933 2.960494
2005-03-15 12:21:17 51°15.821 2°53.431 -999 2.776097 29.058441 2.926785
2005-03-15 12:22:16 51°15.816 2°53.428 -999 2.776412 29.058165 2.926785
2005-03-15 12:23:16 51°15.81 2°53.425 -999 2.776413 29.060514 3.061623
2005-03-15 12:24:16 51°15.804 2°53.423 -999 2.776518 29.058595 2.926785
2005-03-15 12:25:17 51°15.798 2°53.421 -999 2.776728 29.06572 2.893076
2005-03-15 12:26:17 51°15.793 2°53.419 -999 2.776518 29.065644 2.893076
2005-03-15 12:27:16 51°15.788 2°53.418 -999 2.777359 29.069867 2.926785
2005-03-15 12:28:16 51°15.785 2°53.418 -999 2.778306 29.075302 2.825657
2005-03-15 12:29:16 51°15.782 2°53.417 -999 2.778517 29.076945 2.791947
2005-03-15 12:30:16 51°15.779 2°53.416 -999 2.778306 29.076085 2.893076
2005-03-15 12:31:16 51°15.776 2°53.416 -999 2.778412 29.082783 2.859366
2005-03-15 12:32:16 51°15.772 2°53.416 -999 2.778201 29.089764 2.859366
2005-03-15 12:33:16 51°15.768 2°53.416 -999 2.778517 29.091052 2.859366
2005-03-15 12:34:17 51°15.765 2°53.417 -999 2.779359 29.103115 2.893076
2005-03-15 12:35:16 51°15.763 2°53.418 -999 2.779254 29.10347 2.825657
2005-03-15 12:36:16 51°15.761 2°53.42 -999 2.778728 29.100539 2.825657
2005-03-15 12:37:16 51°15.729 2°53.455 -999 2.779043 29.101043 2.791947
2005-03-15 12:38:16 51°15.673 2°53.506 -999 2.777675 29.071156 2.960494
2005-03-15 12:39:16 51°15.608 2°53.571 -999 2.771677 28.989519 3.19646
2005-03-15 12:40:17 51°15.531 2°53.641 -999 2.767048 28.931511 3.297589
2005-03-15 12:41:16 51°15.454 2°53.711 -999 2.762418 28.882088 3.23017
2005-03-15 12:42:16 51°15.38 2°53.799 -999 2.761682 28.883719 2.926785
2005-03-15 12:43:16 51°15.308 2°53.895 -999 2.765785 28.930213 2.859366
2005-03-15 12:44:16 51°15.214 2°54.031 -999 2.768521 28.974224 2.825657
2005-03-15 12:45:16 51°15.108 2°54.183 -999 2.765364 28.90434 2.791947
2005-03-15 12:46:16 51°15.007 2°54.325 -999 2.757999 28.827323 3.129042
2005-03-15 12:47:16 51°14.938 2°54.402 -999 0.092687 0.729879 -0.814958
2005-03-15 12:48:16 51°14.894 2°54.442 -999 0.062852 0.496552 -0.814958
2005-03-15 12:49:16 51°14.859 2°54.473 -999 0.054953 0.433046 -0.814958
2005-03-15 12:50:16 51°14.815 2°54.529 -999 0.05038 0.395191 -0.882377
2005-03-15 12:51:16 51°14.726 2°54.698 -999 0.047782 0.373334 -0.848668
2005-03-15 12:52:16 51°14.552 2°54.869 -999 0.045496 0.354046 -0.814958
2005-03-15 12:53:16 51°14.377 2°55.053 -999 0.043521 0.337421 -0.848668
2005-03-15 12:54:17 51°14.244 2°55.293 -999 0.042378 0.32747 -0.848668
2005-03-15 12:55:16 51°14.117 2°55.419 -999 0.041027 0.3159 -0.848668
2005-03-15 12:56:16 51°14.001 2°55.506 -999 0.040092 0.30772 -0.814958
2005-03-15 12:57:16 51°13.886 2°55.594 -999 0.039261 0.30039 -0.814958
2005-03-15 12:58:17 51°13.77 2°55.698 -999 0.038533 0.293917 -0.848668
2005-03-15 12:59:17 51°13.701 2°55.82 -999 0.038014 0.289113 -0.848668
2005-03-15 13:00:17 51°13.648 2°55.939 -999 0.037494 0.284329 -0.814958
2005-03-15 13:01:17 51°13.617 2°56.031 -999 0.037078 0.280393 -0.848668
2005-03-15 13:02:15 51°13.599 2°56.09 -999 0.036559 0.275653 -0.848668
2005-03-15 13:03:17 51°13.595 2°56.102 -999 0.036247 0.272558 -0.848668